createdAt,value
2023-02-24T00:02:01.212Z,97104.78
2023-02-24T00:04:28.859Z,97110.69
2023-02-24T00:06:55.365Z,97105.06
2023-02-24T00:09:23.239Z,97105.59
2023-02-24T00:11:57.716Z,97109.75
2023-02-24T00:14:25.255Z,97097.59
2023-02-24T00:16:52.498Z,97098.66
2023-02-24T00:19:20.741Z,97093.47
2023-02-24T00:21:47.472Z,97096.00
2023-02-24T00:24:14.388Z,97103.59
2023-02-24T00:26:41.029Z,97095.13
2023-02-24T00:29:08.946Z,97097.28
2023-02-24T00:31:39.573Z,97096.84
2023-02-24T00:34:06.837Z,97084.97
2023-02-24T00:36:34.028Z,97085.78
2023-02-24T00:39:01.979Z,97074.28
2023-02-24T00:41:32.368Z,97079.75
2023-02-24T00:44:08.409Z,97070.84
2023-02-24T00:46:39.310Z,97069.78
2023-02-24T00:49:07.705Z,97068.22
2023-02-24T00:51:41.122Z,97073.25
2023-02-24T00:54:08.392Z,97064.50
2023-02-24T00:56:34.985Z,97062.31
2023-02-24T00:59:02.500Z,97058.06
2023-02-24T01:01:31.850Z,97050.50
2023-02-24T01:04:01.629Z,97053.69
2023-02-24T01:06:29.300Z,97052.81
2023-02-24T01:08:57.721Z,97054.59
2023-02-24T01:11:44.075Z,97044.09
2023-02-24T01:14:13.661Z,97043.56
2023-02-24T01:16:44.738Z,97044.44
2023-02-24T01:19:12.528Z,97040.91
2023-02-24T01:21:40.833Z,97041.88
2023-02-24T01:24:07.331Z,97030.13
2023-02-24T01:26:34.698Z,97028.88
2023-02-24T01:29:01.376Z,97027.28
2023-02-24T01:31:28.795Z,97031.19
2023-02-24T01:33:55.574Z,97023.91
2023-02-24T01:36:23.797Z,97017.44
2023-02-24T01:38:50.291Z,97018.59
2023-02-24T01:41:18.583Z,97018.47
2023-02-24T01:44:12.288Z,97017.94
2023-02-24T01:46:39.828Z,97005.63
2023-02-24T01:49:13.356Z,97010.84
2023-02-24T01:51:45.441Z,97012.94
2023-02-24T01:54:13.939Z,96997.84
2023-02-24T01:56:41.392Z,96997.50
2023-02-24T01:59:09.221Z,97004.84
2023-02-24T02:01:43.035Z,97005.50
2023-02-24T02:04:20.470Z,96997.28
2023-02-24T02:06:48.208Z,96994.81
2023-02-24T02:09:15.621Z,96996.16
2023-02-24T02:11:42.655Z,96998.19
2023-02-24T02:14:09.713Z,97001.84
2023-02-24T02:16:56.514Z,96999.16
2023-02-24T02:19:35.846Z,96995.97
2023-02-24T02:22:08.265Z,97002.72
2023-02-24T02:24:50.211Z,97004.66
2023-02-24T02:27:35.088Z,97011.47
2023-02-24T02:30:06.277Z,97006.56
2023-02-24T02:32:38.824Z,97009.41
2023-02-24T02:35:11.900Z,97010.63
2023-02-24T02:37:48.276Z,97013.16
2023-02-24T02:40:23.375Z,97010.09
2023-02-24T02:43:02.127Z,96996.25
2023-02-24T02:45:34.030Z,96989.13
2023-02-24T02:48:15.606Z,96995.00
2023-02-24T02:50:46.423Z,96993.84
2023-02-24T02:53:24.567Z,96994.09
2023-02-24T02:55:54.639Z,96999.81
2023-02-24T02:58:26.178Z,96997.16
2023-02-24T03:01:02.629Z,96998.13
2023-02-24T03:03:32.238Z,96985.91
2023-02-24T03:06:12.047Z,96989.66
2023-02-24T03:08:40.181Z,96987.97
2023-02-24T03:11:11.283Z,96988.59
2023-02-24T03:13:41.108Z,96986.34
2023-02-24T03:16:09.070Z,96990.81
2023-02-24T03:18:38.153Z,96987.31
2023-02-24T03:21:17.306Z,96990.81
2023-02-24T03:23:47.022Z,96989.97
2023-02-24T03:26:21.601Z,96995.09
2023-02-24T03:28:58.224Z,96989.56
2023-02-24T03:31:28.240Z,96984.50
2023-02-24T03:34:03.700Z,96980.47
2023-02-24T03:36:30.939Z,96983.31
2023-02-24T03:38:58.565Z,96971.84
2023-02-24T03:41:30.514Z,96974.34
2023-02-24T03:43:58.886Z,96976.88
2023-02-24T03:46:26.093Z,96966.63
2023-02-24T03:48:58.562Z,96970.16
2023-02-24T03:51:25.093Z,96975.63
2023-02-24T03:54:01.908Z,96961.28
2023-02-24T03:56:40.433Z,96966.50
2023-02-24T03:59:23.739Z,96972.38
2023-02-24T04:01:58.021Z,96962.81
2023-02-24T04:04:45.975Z,96965.72
2023-02-24T04:07:27.965Z,96969.50
2023-02-24T04:09:57.123Z,96963.34
2023-02-24T04:12:29.978Z,96962.78
2023-02-24T04:15:15.522Z,96963.06
2023-02-24T04:17:48.568Z,96969.38
2023-02-24T04:20:20.646Z,96958.53
2023-02-24T04:22:59.530Z,96955.47
2023-02-24T04:25:26.824Z,96952.94
2023-02-24T04:27:58.273Z,96944.53
2023-02-24T04:30:26.948Z,96954.38
2023-02-24T04:32:54.006Z,96942.31
2023-02-24T04:35:22.235Z,96947.94
2023-02-24T04:37:50.851Z,96946.19
2023-02-24T04:40:18.765Z,96950.69
2023-02-24T04:42:48.934Z,96948.31
2023-02-24T04:45:19.440Z,96944.19
2023-02-24T04:47:49.457Z,96946.97
2023-02-24T04:50:25.609Z,96941.63
2023-02-24T04:52:56.998Z,96931.81
2023-02-24T04:55:25.289Z,96932.44
2023-02-24T04:57:55.284Z,96922.59
2023-02-24T05:00:22.704Z,96916.97
2023-02-24T05:02:50.128Z,96917.22
2023-02-24T05:05:17.788Z,96918.91
2023-02-24T05:07:47.982Z,96923.50
2023-02-24T05:10:15.342Z,96924.00
2023-02-24T05:12:42.468Z,96922.38
2023-02-24T05:15:09.163Z,96919.94
2023-02-24T05:17:36.323Z,96911.28
2023-02-24T05:20:21.791Z,96914.31
2023-02-24T05:22:51.762Z,96905.91
2023-02-24T05:25:20.072Z,96907.00
2023-02-24T05:27:47.544Z,96902.44
2023-02-24T05:30:14.536Z,96900.41
2023-02-24T05:32:41.118Z,96899.38
2023-02-24T05:35:07.767Z,96889.84
2023-02-24T05:37:37.349Z,96885.72
2023-02-24T05:40:04.379Z,96890.16
2023-02-24T05:42:35.069Z,96896.22
2023-02-24T05:45:02.037Z,96893.25
2023-02-24T05:47:28.842Z,96892.06
2023-02-24T05:49:56.894Z,96887.59
2023-02-24T05:52:23.519Z,96895.19
2023-02-24T05:54:50.469Z,96890.16
2023-02-24T05:57:21.027Z,96886.03
2023-02-24T05:59:50.933Z,96879.00
2023-02-24T06:02:27.084Z,96880.34
2023-02-24T06:04:54.285Z,96874.72
2023-02-24T06:07:27.358Z,96886.69
2023-02-24T06:09:57.800Z,96885.13
2023-02-24T06:12:28.071Z,96881.84
2023-02-24T06:14:54.788Z,96881.03
2023-02-24T06:17:21.827Z,96886.66
2023-02-24T06:19:50.003Z,96883.50
2023-02-24T06:22:19.067Z,96890.22
2023-02-24T06:24:46.000Z,96894.66
2023-02-24T06:27:17.757Z,96889.47
2023-02-24T06:29:45.278Z,96890.94
2023-02-24T06:32:12.776Z,96889.25
2023-02-24T06:34:39.598Z,96887.63
2023-02-24T06:37:07.304Z,96887.44
2023-02-24T06:39:36.612Z,96887.44
2023-02-24T06:42:05.038Z,96884.13
2023-02-24T06:44:32.606Z,96885.00
2023-02-24T06:46:59.415Z,96883.50
2023-02-24T06:49:26.772Z,96886.44
2023-02-24T06:51:54.651Z,96880.59
2023-02-24T06:54:28.340Z,96877.19
2023-02-24T06:56:55.028Z,96890.16
2023-02-24T06:59:28.496Z,96875.66
2023-02-24T07:01:55.688Z,96876.19
2023-02-24T07:04:27.779Z,96885.44
2023-02-24T07:06:56.913Z,96879.34
2023-02-24T07:09:24.766Z,96886.19
2023-02-24T07:11:52.300Z,96874.28
2023-02-24T07:14:20.747Z,96872.88
2023-02-24T07:16:50.967Z,96873.59
2023-02-24T07:19:17.438Z,96862.78
2023-02-24T07:21:49.922Z,96862.78
2023-02-24T07:24:24.721Z,96869.34
2023-02-24T07:26:58.558Z,96872.19
2023-02-24T07:29:26.254Z,96862.22
2023-02-24T07:31:56.540Z,96875.44
2023-02-24T07:34:24.939Z,96863.63
2023-02-24T07:36:52.450Z,96869.34
2023-02-24T07:39:19.572Z,96866.94
2023-02-24T07:41:49.477Z,96866.09
2023-02-24T07:44:17.291Z,96856.44
2023-02-24T07:46:43.738Z,96852.00
2023-02-24T07:49:12.127Z,96849.81
2023-02-24T07:51:38.653Z,96843.38
2023-02-24T07:54:05.306Z,96835.34
2023-02-24T07:56:32.828Z,96841.16
2023-02-24T07:59:11.195Z,96826.00
2023-02-24T08:01:40.683Z,96825.63
2023-02-24T08:04:08.156Z,96818.81
2023-02-24T08:06:38.850Z,96824.09
2023-02-24T08:09:19.033Z,96818.38
2023-02-24T08:11:53.039Z,96814.63
2023-02-24T08:14:20.490Z,96816.13
2023-02-24T08:16:48.217Z,96796.06
2023-02-24T08:19:20.192Z,96794.47
2023-02-24T08:21:50.297Z,96789.16
2023-02-24T08:24:25.290Z,96797.56
2023-02-24T08:27:06.280Z,96794.34
2023-02-24T08:29:40.110Z,96788.50
2023-02-24T08:32:09.439Z,96788.78
2023-02-24T08:34:36.467Z,96791.72
2023-02-24T08:37:02.937Z,96780.09
2023-02-24T08:39:30.264Z,96772.47
2023-02-24T08:41:57.805Z,96773.28
2023-02-24T08:44:27.012Z,96768.56
2023-02-24T08:46:54.356Z,96772.13
2023-02-24T08:49:24.852Z,96764.66
2023-02-24T08:51:52.903Z,96758.53
2023-02-24T08:54:32.079Z,96763.28
2023-02-24T08:57:08.092Z,96761.69
2023-02-24T08:59:39.260Z,96761.34
2023-02-24T09:02:19.177Z,96764.84
2023-02-24T09:04:46.712Z,96756.75
2023-02-24T09:07:17.504Z,96759.25
2023-02-24T09:09:44.069Z,96751.59
2023-02-24T09:12:21.738Z,96748.09
2023-02-24T09:14:49.903Z,96739.84
2023-02-24T09:17:20.532Z,96736.25
2023-02-24T09:19:50.938Z,96734.84
2023-02-24T09:22:31.809Z,96732.03
2023-02-24T09:25:21.803Z,96731.63
2023-02-24T09:27:52.463Z,96726.16
2023-02-24T09:30:35.897Z,96725.75
2023-02-24T09:33:17.776Z,96724.34
2023-02-24T09:35:46.771Z,96724.97
2023-02-24T09:38:17.492Z,96720.53
2023-02-24T09:40:52.046Z,96724.59
2023-02-24T09:43:30.345Z,96722.91
2023-02-24T09:46:00.803Z,96722.75
2023-02-24T09:48:33.318Z,96714.19
2023-02-24T09:51:06.065Z,96704.66
2023-02-24T09:53:41.299Z,96708.91
2023-02-24T09:56:07.880Z,96706.34
2023-02-24T09:58:53.172Z,96706.00
2023-02-24T10:01:23.390Z,96704.44
2023-02-24T10:03:51.685Z,96699.59
2023-02-24T10:06:20.986Z,96700.81
2023-02-24T10:08:55.014Z,96696.25
2023-02-24T10:11:35.062Z,96694.00
2023-02-24T10:14:05.423Z,96683.97
2023-02-24T10:16:41.543Z,96683.53
2023-02-24T10:19:17.628Z,96683.13
2023-02-24T10:22:03.218Z,96692.72
2023-02-24T10:24:47.436Z,96679.59
2023-02-24T10:27:17.409Z,96670.06
2023-02-24T10:30:10.898Z,96676.34
2023-02-24T10:32:58.764Z,96666.94
2023-02-24T10:35:33.430Z,96659.59
2023-02-24T10:38:05.288Z,96668.94
2023-02-24T10:40:45.106Z,96651.13
2023-02-24T10:43:17.738Z,96652.44
2023-02-24T10:45:45.512Z,96643.78
2023-02-24T10:48:42.790Z,96638.31
2023-02-24T10:51:19.034Z,96639.34
2023-02-24T10:54:08.408Z,96625.34
2023-02-24T10:56:44.276Z,96619.97
2023-02-24T10:59:24.620Z,96619.59
2023-02-24T11:02:01.151Z,96609.22
2023-02-24T11:04:32.374Z,96599.00
2023-02-24T11:07:12.338Z,96605.41
2023-02-24T11:09:52.645Z,96588.66
2023-02-24T11:12:40.009Z,96585.25
2023-02-24T11:15:44.364Z,96586.63
2023-02-24T11:18:18.986Z,96580.75
2023-02-24T11:20:49.837Z,96575.63
2023-02-24T11:23:19.160Z,96580.38
2023-02-24T11:25:51.317Z,96565.22
2023-02-24T11:28:26.232Z,96563.06
2023-02-24T11:30:59.176Z,96552.38
2023-02-24T11:33:35.081Z,96538.97
2023-02-24T11:36:02.592Z,96539.53
2023-02-24T11:38:52.383Z,96535.31
2023-02-24T11:41:26.040Z,96529.44
2023-02-24T11:44:06.211Z,96524.06
2023-02-24T11:46:41.626Z,96515.59
2023-02-24T11:49:18.214Z,96514.38
2023-02-24T11:51:44.675Z,96513.50
2023-02-24T11:54:13.022Z,96496.69
2023-02-24T11:56:43.975Z,96494.19
2023-02-24T11:59:16.499Z,96491.34
2023-02-24T12:02:03.849Z,96486.69
2023-02-24T12:04:40.424Z,96487.75
2023-02-24T12:07:10.483Z,96470.66
2023-02-24T12:09:44.822Z,96473.78
2023-02-24T12:12:18.456Z,96463.31
2023-02-24T12:14:47.795Z,96470.59
2023-02-24T12:17:32.863Z,96458.19
2023-02-24T12:20:05.081Z,96455.56
2023-02-24T12:22:44.667Z,96452.13
2023-02-24T12:25:12.536Z,96446.72
2023-02-24T12:27:51.240Z,96442.63
2023-02-24T12:30:38.850Z,96430.91
2023-02-24T12:33:05.508Z,96428.28
2023-02-24T12:35:40.860Z,96415.34
2023-02-24T12:38:18.057Z,96422.16
2023-02-24T12:40:51.542Z,96410.53
2023-02-24T12:43:45.173Z,96404.03
2023-02-24T12:46:30.457Z,96400.16
2023-02-24T12:49:15.293Z,96398.25
2023-02-24T12:52:04.824Z,96391.88
2023-02-24T12:54:31.381Z,96388.50
2023-02-24T12:57:13.684Z,96388.50
2023-02-24T12:59:40.879Z,96380.38
2023-02-24T13:02:13.451Z,96369.78
2023-02-24T13:04:48.714Z,96372.78
2023-02-24T13:07:35.585Z,96368.81
2023-02-24T13:10:20.980Z,96355.03
2023-02-24T13:12:59.087Z,96354.47
2023-02-24T13:15:27.430Z,96357.16
2023-02-24T13:17:57.709Z,96355.03
2023-02-24T13:20:25.807Z,96357.81
2023-02-24T13:22:52.731Z,96347.28
2023-02-24T13:25:23.603Z,96345.44
2023-02-24T13:27:59.942Z,96331.00
2023-02-24T13:30:28.922Z,96334.78
2023-02-24T13:33:18.387Z,96326.13
2023-02-24T13:35:45.805Z,96315.84
2023-02-24T13:38:21.625Z,96320.47
2023-02-24T13:40:48.117Z,96315.72
2023-02-24T13:43:22.694Z,96311.88
2023-02-24T13:45:54.924Z,96305.00
2023-02-24T13:48:24.938Z,96303.50
2023-02-24T13:50:54.389Z,96313.34
2023-02-24T13:53:39.764Z,96308.03
2023-02-24T13:56:15.428Z,96298.88
2023-02-24T13:58:52.504Z,96299.41
2023-02-24T14:01:20.957Z,96289.50
2023-02-24T14:04:03.381Z,96299.72
2023-02-24T14:06:29.901Z,96292.47
2023-02-24T14:08:59.121Z,96293.66
2023-02-24T14:11:29.220Z,96287.13
2023-02-24T14:13:56.344Z,96288.72
2023-02-24T14:16:41.831Z,96286.06
2023-02-24T14:19:16.264Z,96275.59
2023-02-24T14:21:50.709Z,96272.28
2023-02-24T14:24:17.541Z,96261.97
2023-02-24T14:26:51.333Z,96271.91
2023-02-24T14:29:20.077Z,96261.41
2023-02-24T14:31:47.515Z,96252.50
2023-02-24T14:34:17.783Z,96261.50
2023-02-24T14:36:45.344Z,96266.28
2023-02-24T14:39:23.642Z,96262.53
2023-02-24T14:41:51.643Z,96262.50
2023-02-24T14:44:18.842Z,96246.63
2023-02-24T14:46:47.281Z,96239.09
2023-02-24T14:49:17.469Z,96242.59
2023-02-24T14:51:44.372Z,96239.63
2023-02-24T14:54:17.769Z,96238.50
2023-02-24T14:56:44.312Z,96226.59
2023-02-24T14:59:27.701Z,96221.72
2023-02-24T15:01:55.451Z,96221.97
2023-02-24T15:04:28.058Z,96225.06
2023-02-24T15:06:54.572Z,96223.38
2023-02-24T15:09:23.692Z,96220.69
2023-02-24T15:11:50.777Z,96218.34
2023-02-24T15:14:24.717Z,96213.00
2023-02-24T15:16:53.036Z,96210.13
2023-02-24T15:19:22.584Z,96216.69
2023-02-24T15:21:49.013Z,96208.28
2023-02-24T15:24:21.522Z,96211.00
2023-02-24T15:27:11.428Z,96203.00
2023-02-24T15:29:37.904Z,96206.25
2023-02-24T15:32:07.641Z,96206.38
2023-02-24T15:34:35.694Z,96207.63
2023-02-24T15:37:22.383Z,96208.47
2023-02-24T15:39:50.396Z,96205.47
2023-02-24T15:42:16.854Z,96202.84
2023-02-24T15:44:54.657Z,96197.19
2023-02-24T15:47:26.065Z,96200.13
2023-02-24T15:49:52.592Z,96193.03
2023-02-24T15:52:21.991Z,96189.81
2023-02-24T15:54:48.691Z,96185.09
2023-02-24T15:57:16.497Z,96201.38
2023-02-24T15:59:43.371Z,96195.97
2023-02-24T16:02:14.135Z,96192.22
2023-02-24T16:04:40.586Z,96195.16
2023-02-24T16:07:10.929Z,96186.25
2023-02-24T16:09:39.833Z,96176.44
2023-02-24T16:12:12.445Z,96177.28
2023-02-24T16:14:39.427Z,96171.44
2023-02-24T16:17:08.792Z,96174.34
2023-02-24T16:19:37.164Z,96168.94
2023-02-24T16:22:03.748Z,96168.09
2023-02-24T16:24:30.172Z,96162.69
2023-02-24T16:26:56.723Z,96173.69
2023-02-24T16:29:23.173Z,96169.94
2023-02-24T16:31:49.857Z,96174.00
2023-02-24T16:34:16.463Z,96179.41
2023-02-24T16:36:43.748Z,96176.72
2023-02-24T16:39:12.004Z,96171.81
2023-02-24T16:41:38.533Z,96167.69
2023-02-24T16:44:05.436Z,96155.00
2023-02-24T16:46:35.928Z,96157.66
2023-02-24T16:49:02.388Z,96153.41
2023-02-24T16:51:29.061Z,96145.59
2023-02-24T16:53:55.561Z,96145.81
2023-02-24T16:56:22.313Z,96137.06
2023-02-24T16:58:49.021Z,96132.88
2023-02-24T17:01:20.661Z,96131.97
2023-02-24T17:03:48.941Z,96131.53
2023-02-24T17:06:15.433Z,96131.47
2023-02-24T17:08:43.759Z,96138.31
2023-02-24T17:11:12.460Z,96134.66
2023-02-24T17:13:38.956Z,96131.06
2023-02-24T17:16:05.475Z,96134.53
2023-02-24T17:18:32.274Z,96140.03
2023-02-24T17:20:58.729Z,96136.75
2023-02-24T17:23:25.166Z,96130.19
2023-02-24T17:25:56.740Z,96136.53
2023-02-24T17:28:23.324Z,96126.00
2023-02-24T17:30:49.969Z,96131.31
2023-02-24T17:33:16.549Z,96138.41
2023-02-24T17:35:43.217Z,96148.84
2023-02-24T17:38:13.159Z,96153.84
2023-02-24T17:40:40.510Z,96155.88
2023-02-24T17:43:06.963Z,96152.94
2023-02-24T17:45:33.946Z,96149.59
2023-02-24T17:48:00.490Z,96146.03
2023-02-24T17:50:27.113Z,96141.28
2023-02-24T17:52:53.605Z,96139.56
2023-02-24T17:55:20.137Z,96131.00
2023-02-24T17:57:46.559Z,96134.25
2023-02-24T18:00:13.236Z,96142.72
2023-02-24T18:02:39.919Z,96140.19
2023-02-24T18:05:06.797Z,96137.91
2023-02-24T18:07:33.342Z,96141.03
2023-02-24T18:09:59.801Z,96138.88
2023-02-24T18:12:26.522Z,96130.19
2023-02-24T18:15:06.901Z,96121.03
2023-02-24T18:17:35.703Z,96121.91
2023-02-24T18:20:02.461Z,96118.72
2023-02-24T18:22:28.974Z,96116.94
2023-02-24T18:24:55.453Z,96116.09
2023-02-24T18:27:22.346Z,96117.03
2023-02-24T18:29:48.860Z,96119.66
2023-02-24T18:32:15.571Z,96111.28
2023-02-24T18:34:42.232Z,96107.97
2023-02-24T18:37:08.674Z,96108.81
2023-02-24T18:39:35.152Z,96109.09
2023-02-24T18:42:01.593Z,96105.75
2023-02-24T18:44:28.218Z,96108.72
2023-02-24T18:46:54.764Z,96100.97
2023-02-24T18:49:21.256Z,96095.09
2023-02-24T18:51:48.987Z,96081.09
2023-02-24T18:54:16.180Z,96083.09
2023-02-24T18:56:42.748Z,96092.66
2023-02-24T18:59:09.192Z,96089.75
2023-02-24T19:01:36.803Z,96091.53
2023-02-24T19:04:03.921Z,96095.69
2023-02-24T19:06:31.646Z,96092.47
2023-02-24T19:08:59.677Z,96093.19
2023-02-24T19:11:26.503Z,96090.41
2023-02-24T19:13:53.283Z,96091.41
2023-02-24T19:16:20.053Z,96088.34
2023-02-24T19:18:49.750Z,96085.19
2023-02-24T19:21:16.235Z,96082.88
2023-02-24T19:23:42.688Z,96082.69
2023-02-24T19:26:19.591Z,96079.13
2023-02-24T19:28:46.230Z,96073.53
2023-02-24T19:31:14.530Z,96064.59
2023-02-24T19:33:41.106Z,96059.31
2023-02-24T19:36:07.916Z,96060.03
2023-02-24T19:38:34.426Z,96061.22
2023-02-24T19:41:01.002Z,96054.84
2023-02-24T19:43:27.450Z,96043.09
2023-02-24T19:45:54.153Z,96042.47
2023-02-24T19:48:20.665Z,96055.03
2023-02-24T19:50:47.225Z,96057.53
2023-02-24T19:53:13.704Z,96044.53
2023-02-24T19:55:40.131Z,96043.97
2023-02-24T19:58:06.628Z,96048.00
2023-02-24T20:00:33.077Z,96055.22
2023-02-24T20:02:59.669Z,96049.09
2023-02-24T20:05:26.114Z,96053.47
2023-02-24T20:07:52.543Z,96051.84
2023-02-24T20:10:19.144Z,96045.69
2023-02-24T20:12:45.606Z,96051.22
2023-02-24T20:15:12.564Z,96051.56
2023-02-24T20:17:39.177Z,96050.56
2023-02-24T20:20:05.956Z,96052.25
2023-02-24T20:22:32.447Z,96051.69
2023-02-24T20:24:59.028Z,96055.56
2023-02-24T20:27:25.571Z,96050.28
2023-02-24T20:29:53.624Z,96044.06
2023-02-24T20:32:20.307Z,96037.03
2023-02-24T20:34:46.897Z,96040.97
2023-02-24T20:37:13.372Z,96037.28
2023-02-24T20:39:39.950Z,96033.81
2023-02-24T20:42:06.438Z,96021.31
2023-02-24T20:44:33.339Z,96017.69
2023-02-24T20:46:59.947Z,96020.06
2023-02-24T20:49:27.229Z,96010.34
2023-02-24T20:51:53.778Z,96001.28
2023-02-24T20:54:20.315Z,95990.94
2023-02-24T20:56:47.021Z,95993.25
2023-02-24T20:59:15.142Z,95993.16
2023-02-24T21:01:42.212Z,95991.69
2023-02-24T21:04:08.896Z,95990.56
2023-02-24T21:06:35.976Z,95985.69
2023-02-24T21:09:02.643Z,95981.91
2023-02-24T21:11:30.226Z,95979.59
2023-02-24T21:13:57.117Z,95973.94
2023-02-24T21:16:24.430Z,95963.88
2023-02-24T21:18:53.033Z,95961.88
2023-02-24T21:21:19.856Z,95965.22
2023-02-24T21:23:47.257Z,95957.84
2023-02-24T21:26:14.333Z,95959.53
2023-02-24T21:28:40.880Z,95957.53
2023-02-24T21:31:12.178Z,95949.38
2023-02-24T21:33:39.187Z,95945.88
2023-02-24T21:36:07.123Z,95952.16
2023-02-24T21:38:34.169Z,95958.56
2023-02-24T21:41:05.411Z,95949.88
2023-02-24T21:43:32.308Z,95959.88
2023-02-24T21:46:02.788Z,95949.88
2023-02-24T21:48:29.303Z,95959.25
2023-02-24T21:50:59.518Z,95946.22
2023-02-24T21:53:29.972Z,95945.53
2023-02-24T21:56:10.825Z,95942.97
2023-02-24T21:58:39.132Z,95945.81
2023-02-24T22:01:09.893Z,95939.63
2023-02-24T22:03:36.514Z,95940.31
2023-02-24T22:06:03.163Z,95934.28
2023-02-24T22:08:29.655Z,95934.88
2023-02-24T22:11:00.170Z,95936.53
2023-02-24T22:13:27.222Z,95934.84
2023-02-24T22:15:53.895Z,95919.47
2023-02-24T22:18:21.255Z,95916.97
2023-02-24T22:20:47.851Z,95916.47
2023-02-24T22:23:14.313Z,95909.44
2023-02-24T22:25:40.784Z,95919.16
2023-02-24T22:28:07.319Z,95905.44
2023-02-24T22:30:33.804Z,95896.94
2023-02-24T22:33:00.283Z,95899.75
2023-02-24T22:35:26.721Z,95904.13
2023-02-24T22:37:53.646Z,95903.97
2023-02-24T22:40:20.876Z,95895.75
2023-02-24T22:42:47.479Z,95902.06
2023-02-24T22:45:13.963Z,95892.09
2023-02-24T22:47:40.512Z,95896.44
2023-02-24T22:50:07.482Z,95896.06
2023-02-24T22:52:33.930Z,95886.38
2023-02-24T22:55:00.615Z,95879.50
2023-02-24T22:57:29.097Z,95887.38
2023-02-24T22:59:56.030Z,95886.22
2023-02-24T23:02:22.508Z,95861.00
2023-02-24T23:04:49.007Z,95865.06
2023-02-24T23:07:15.448Z,95869.00
2023-02-24T23:09:52.363Z,95862.66
2023-02-24T23:12:19.999Z,95855.00
2023-02-24T23:14:46.715Z,95853.31
2023-02-24T23:17:13.175Z,95844.31
2023-02-24T23:19:39.617Z,95846.94
2023-02-24T23:22:07.787Z,95842.63
2023-02-24T23:24:34.473Z,95842.97
2023-02-24T23:27:00.952Z,95842.91
2023-02-24T23:29:27.742Z,95833.63
2023-02-24T23:31:54.400Z,95839.31
2023-02-24T23:34:21.227Z,95833.91
2023-02-24T23:36:47.786Z,95828.88
2023-02-24T23:39:15.944Z,95832.88
2023-02-24T23:41:42.498Z,95827.19
2023-02-24T23:44:09.375Z,95822.56
2023-02-24T23:46:36.712Z,95807.25
2023-02-24T23:49:03.655Z,95803.19
2023-02-24T23:51:45.693Z,95803.81
2023-02-24T23:54:14.637Z,95793.28
2023-02-24T23:56:41.235Z,95780.94
2023-02-24T23:59:07.741Z,95784.06
